Time;durP1;ratioP1;P1;durP2;ratioP2;P2;SDS_P1;SDS_P2;PMS_P1;PMS_P2;Temp;Humidity;BMP_temperature;BMP_pressure;BME280_temperature;BME280_humidity;BME280_pressure;Samples;Min_cycle;Max_cycle;Signal;HPM_P1;HPM_P2
2023/08/14 00:00:50;;;;;;;2.93;2.50;;;;;;;;;;5031398;28;20197;-57
2023/08/14 00:03:16;;;;;;;2.87;2.67;;;;;;;;;;5026485;28;20693;-51
2023/08/14 00:05:42;;;;;;;2.30;2.10;;;;;;;;;;5029223;28;20268;-51
2023/08/14 00:08:08;;;;;;;4.17;2.60;;;;;;;;;;5025945;28;20245;-51
2023/08/14 00:10:34;;;;;;;5.33;2.73;;;;;;;;;;5027083;28;20719;-51
2023/08/14 00:13:00;;;;;;;3.53;2.50;;;;;;;;;;5029863;28;20638;-51
2023/08/14 00:15:26;;;;;;;2.80;2.60;;;;;;;;;;5025656;28;20205;-51
2023/08/14 00:17:52;;;;;;;2.50;2.30;;;;;;;;;;5025381;28;20226;-52
2023/08/14 00:20:18;;;;;;;3.13;2.83;;;;;;;;;;5028030;28;20209;-51
2023/08/14 00:22:44;;;;;;;3.10;2.83;;;;;;;;;;5026366;28;20231;-51
2023/08/14 00:25:10;;;;;;;2.70;2.50;;;;;;;;;;5026435;28;20200;-51
2023/08/14 00:27:37;;;;;;;2.87;2.67;;;;;;;;;;5026798;28;20557;-51
2023/08/14 00:30:03;;;;;;;2.63;2.40;;;;;;;;;;5026690;28;20193;-51
2023/08/14 00:32:29;;;;;;;3.97;2.63;;;;;;;;;;5028059;28;20208;-51
2023/08/14 00:34:56;;;;;;;2.73;2.37;;;;;;;;;;5025223;28;20212;-51
2023/08/14 00:37:25;;;;;;;3.70;3.33;;;;;;;;;;5025246;28;20243;-48
2023/08/14 00:39:51;;;;;;;3.87;2.43;;;;;;;;;;5020162;28;20182;-48
2023/08/14 00:42:17;;;;;;;2.67;2.40;;;;;;;;;;5025061;28;20204;-49
2023/08/14 00:44:43;;;;;;;2.60;2.40;;;;;;;;;;5028879;28;20598;-48
2023/08/14 00:47:09;;;;;;;4.23;2.93;;;;;;;;;;5027587;28;20197;-48
2023/08/14 00:49:35;;;;;;;3.50;2.70;;;;;;;;;;5027690;28;20192;-48
2023/08/14 00:52:01;;;;;;;3.50;2.83;;;;;;;;;;5025507;28;20200;-48
2023/08/14 00:54:27;;;;;;;4.93;2.57;;;;;;;;;;5009271;28;20240;-48
2023/08/14 00:56:53;;;;;;;4.73;2.93;;;;;;;;;;5027180;28;20640;-48
2023/08/14 00:59:19;;;;;;;3.73;2.93;;;;;;;;;;5028611;28;20198;-49
2023/08/14 01:01:45;;;;;;;2.73;2.53;;;;;;;;;;5027357;28;20273;-49
2023/08/14 01:04:11;;;;;;;3.03;2.70;;;;;;;;;;5026325;28;20225;-48
2023/08/14 01:06:37;;;;;;;4.80;2.73;;;;;;;;;;5025522;28;20192;-48
2023/08/14 01:09:04;;;;;;;2.73;2.47;;;;;;;;;;5025715;28;20618;-49
2023/08/14 01:11:38;;;;;;;3.43;2.70;;;;;;;;;;5026233;28;20189;-49
2023/08/14 01:14:10;;;;;;;2.70;2.50;;;;;;;;;;5024605;28;20272;-48
2023/08/14 01:16:38;;;;;;;2.90;2.47;;;;;;;;;;5027507;28;20188;-48
2023/08/14 01:19:06;;;;;;;3.27;2.97;;;;;;;;;;5027808;28;20200;-48
2023/08/14 01:21:50;;;;;;;2.90;2.40;;;;;;;;;;5024852;28;20212;-48
2023/08/14 01:24:46;;;;;;;2.53;2.27;;;;;;;;;;5023624;28;20204;-48
2023/08/14 01:27:12;;;;;;;3.07;2.77;;;;;;;;;;5016019;28;20277;-49
2023/08/14 01:29:39;;;;;;;4.33;2.63;;;;;;;;;;5025632;28;20548;-48
2023/08/14 01:32:05;;;;;;;3.07;2.20;;;;;;;;;;5027158;28;20221;-48
2023/08/14 01:34:31;;;;;;;6.80;2.77;;;;;;;;;;5028589;28;20197;-48
2023/08/14 01:37:07;;;;;;;4.97;2.57;;;;;;;;;;5025816;28;20310;-48
2023/08/14 01:39:40;;;;;;;3.23;2.63;;;;;;;;;;5027843;28;20614;-49
2023/08/14 01:42:08;;;;;;;2.90;2.60;;;;;;;;;;5023350;28;20465;-48
2023/08/14 01:44:36;;;;;;;2.83;2.63;;;;;;;;;;5026054;28;20621;-48
2023/08/14 01:47:04;;;;;;;5.87;2.60;;;;;;;;;;5026879;28;20191;-49
2023/08/14 01:49:31;;;;;;;3.40;2.70;;;;;;;;;;5026308;28;20223;-49
2023/08/14 01:51:58;;;;;;;4.20;3.10;;;;;;;;;;5025655;28;20188;-48
2023/08/14 01:54:24;;;;;;;3.13;2.83;;;;;;;;;;5024198;28;20707;-48
2023/08/14 01:56:50;;;;;;;2.83;2.63;;;;;;;;;;5026523;28;20673;-49
2023/08/14 01:59:16;;;;;;;3.47;2.53;;;;;;;;;;5027412;28;20197;-48
2023/08/14 02:01:42;;;;;;;3.10;2.80;;;;;;;;;;5027098;28;20186;-49
2023/08/14 02:04:09;;;;;;;2.53;2.33;;;;;;;;;;5026270;28;20299;-48
2023/08/14 02:06:35;;;;;;;3.53;2.33;;;;;;;;;;5025158;28;21419;-48
2023/08/14 02:09:01;;;;;;;3.53;3.13;;;;;;;;;;5024986;28;20187;-48
2023/08/14 02:11:27;;;;;;;2.83;2.63;;;;;;;;;;5025769;28;20634;-49
2023/08/14 02:13:53;;;;;;;3.20;2.70;;;;;;;;;;5007573;28;20194;-48
2023/08/14 02:16:19;;;;;;;3.00;2.57;;;;;;;;;;5026194;28;20632;-48
2023/08/14 02:18:45;;;;;;;3.83;2.60;;;;;;;;;;5026309;28;20649;-48
2023/08/14 02:21:11;;;;;;;2.70;2.40;;;;;;;;;;5027701;28;20183;-48
2023/08/14 02:23:37;;;;;;;2.83;2.57;;;;;;;;;;5024396;28;20203;-48
2023/08/14 02:26:03;;;;;;;3.90;2.90;;;;;;;;;;5025106;28;20182;-48
2023/08/14 02:28:29;;;;;;;5.70;3.37;;;;;;;;;;5024691;28;20187;-48
2023/08/14 02:30:55;;;;;;;2.67;2.40;;;;;;;;;;5026915;28;20209;-48
2023/08/14 02:33:21;;;;;;;4.17;2.40;;;;;;;;;;5026692;28;20202;-48
2023/08/14 02:35:47;;;;;;;3.27;2.70;;;;;;;;;;5025330;28;20226;-48
2023/08/14 02:38:13;;;;;;;3.20;2.90;;;;;;;;;;5023434;28;20246;-48
2023/08/14 02:40:39;;;;;;;3.30;2.60;;;;;;;;;;5024136;28;20231;-48
2023/08/14 02:43:05;;;;;;;4.20;2.80;;;;;;;;;;5024944;28;20342;-49
2023/08/14 02:45:32;;;;;;;4.03;2.50;;;;;;;;;;5023652;28;20188;-49
2023/08/14 02:47:58;;;;;;;2.93;2.60;;;;;;;;;;5024735;28;20675;-48
2023/08/14 02:50:24;;;;;;;3.60;2.83;;;;;;;;;;5024900;28;20298;-48
2023/08/14 02:52:50;;;;;;;3.30;2.57;;;;;;;;;;5023467;28;20271;-48
2023/08/14 02:55:16;;;;;;;3.00;2.70;;;;;;;;;;5025558;28;20644;-49
2023/08/14 02:57:42;;;;;;;3.70;3.00;;;;;;;;;;5022163;28;20668;-49
2023/08/14 03:00:09;;;;;;;4.33;2.40;;;;;;;;;;5022045;28;20197;-50
2023/08/14 03:02:35;;;;;;;3.23;2.93;;;;;;;;;;5026575;28;20209;-50
2023/08/14 03:05:01;;;;;;;3.30;3.00;;;;;;;;;;5025266;28;20567;-50
2023/08/14 03:07:28;;;;;;;4.10;2.73;;;;;;;;;;5028357;28;20268;-49
2023/08/14 03:09:54;;;;;;;3.77;2.50;;;;;;;;;;5030271;28;20233;-48
2023/08/14 03:12:20;;;;;;;3.70;2.70;;;;;;;;;;4999477;28;20187;-48
2023/08/14 03:14:46;;;;;;;3.60;2.60;;;;;;;;;;5027821;28;20349;-48
2023/08/14 03:17:12;;;;;;;3.83;3.53;;;;;;;;;;5027456;28;20218;-48
2023/08/14 03:19:38;;;;;;;3.60;2.40;;;;;;;;;;5030902;28;20186;-48
2023/08/14 03:22:04;;;;;;;2.97;2.63;;;;;;;;;;5026574;28;20586;-48
2023/08/14 03:24:30;;;;;;;3.20;2.57;;;;;;;;;;5030185;28;20559;-48
2023/08/14 03:26:56;;;;;;;3.10;2.70;;;;;;;;;;5029866;28;20199;-48
2023/08/14 03:29:24;;;;;;;2.90;2.60;;;;;;;;;;5027802;28;20197;-48
2023/08/14 03:31:50;;;;;;;3.43;3.13;;;;;;;;;;5026721;28;20242;-48
2023/08/14 03:34:16;;;;;;;3.00;2.60;;;;;;;;;;5029733;28;20220;-48
2023/08/14 03:36:42;;;;;;;4.17;2.70;;;;;;;;;;5027472;28;20723;-48
2023/08/14 03:39:08;;;;;;;4.93;2.73;;;;;;;;;;5006098;28;20699;-48
2023/08/14 03:41:34;;;;;;;2.70;2.50;;;;;;;;;;5027678;28;20535;-49
2023/08/14 03:44:00;;;;;;;2.87;2.67;;;;;;;;;;5028330;28;20580;-48
2023/08/14 03:46:26;;;;;;;2.77;2.50;;;;;;;;;;5027391;28;20540;-48
2023/08/14 03:48:52;;;;;;;2.40;2.20;;;;;;;;;;5028032;28;20223;-48
2023/08/14 03:51:18;;;;;;;4.00;3.13;;;;;;;;;;5026310;28;20701;-49
2023/08/14 03:53:44;;;;;;;3.07;2.23;;;;;;;;;;5026661;28;20652;-48
2023/08/14 03:56:10;;;;;;;3.00;2.27;;;;;;;;;;5026948;28;20192;-49
2023/08/14 03:58:36;;;;;;;4.87;2.77;;;;;;;;;;5029702;28;20242;-48
2023/08/14 04:01:02;;;;;;;2.90;2.60;;;;;;;;;;5024400;28;20195;-49
2023/08/14 04:03:28;;;;;;;2.90;2.40;;;;;;;;;;5028129;28;20269;-48
2023/08/14 04:05:58;;;;;;;2.77;2.57;;;;;;;;;;5027981;28;20190;-47
2023/08/14 04:08:24;;;;;;;3.60;2.60;;;;;;;;;;5028464;28;20194;-48
2023/08/14 04:10:54;;;;;;;3.13;2.47;;;;;;;;;;5022060;28;20183;-48
2023/08/14 04:13:20;;;;;;;2.83;2.63;;;;;;;;;;5025899;28;20193;-49
2023/08/14 04:15:46;;;;;;;3.07;2.63;;;;;;;;;;5022992;28;20242;-49
2023/08/14 04:18:12;;;;;;;3.83;2.83;;;;;;;;;;5026506;28;20188;-49
2023/08/14 04:20:38;;;;;;;2.73;2.53;;;;;;;;;;5026221;28;20197;-48
2023/08/14 04:23:05;;;;;;;2.50;2.30;;;;;;;;;;5026350;28;20217;-49
2023/08/14 04:25:32;;;;;;;2.57;2.37;;;;;;;;;;5026501;28;20192;-49
2023/08/14 04:27:58;;;;;;;3.87;2.63;;;;;;;;;;5028016;28;20657;-51
2023/08/14 04:30:24;;;;;;;2.53;2.33;;;;;;;;;;5025946;28;20205;-52
2023/08/14 04:32:50;;;;;;;3.13;2.57;;;;;;;;;;5026931;28;20585;-52
2023/08/14 04:35:16;;;;;;;3.30;2.70;;;;;;;;;;5027305;28;20201;-51
2023/08/14 04:37:42;;;;;;;2.83;2.30;;;;;;;;;;5027022;28;20593;-51
2023/08/14 04:40:09;;;;;;;2.87;2.57;;;;;;;;;;5027045;28;20212;-51
2023/08/14 04:42:35;;;;;;;3.13;2.47;;;;;;;;;;5029904;28;20224;-51
2023/08/14 04:45:02;;;;;;;5.70;2.70;;;;;;;;;;5027165;28;20213;-51
2023/08/14 04:47:28;;;;;;;3.73;2.23;;;;;;;;;;5022570;28;20723;-51
2023/08/14 04:49:54;;;;;;;2.83;2.33;;;;;;;;;;5027884;28;20542;-51
2023/08/14 04:52:22;;;;;;;2.57;2.23;;;;;;;;;;5024700;28;20619;-50
2023/08/14 04:54:49;;;;;;;2.50;2.30;;;;;;;;;;5025245;28;20198;-50
2023/08/14 04:57:16;;;;;;;8.80;3.47;;;;;;;;;;5023408;28;20190;-50
2023/08/14 04:59:42;;;;;;;2.77;2.40;;;;;;;;;;5024636;28;20228;-51
2023/08/14 05:02:08;;;;;;;2.80;2.60;;;;;;;;;;5016515;28;20189;-50
2023/08/14 05:04:34;;;;;;;2.47;2.27;;;;;;;;;;5025103;28;20185;-50
2023/08/14 05:07:00;;;;;;;3.40;2.20;;;;;;;;;;5024516;28;20217;-50
2023/08/14 05:09:27;;;;;;;3.00;2.43;;;;;;;;;;5022925;28;20671;-50
2023/08/14 05:11:53;;;;;;;2.80;2.60;;;;;;;;;;5024255;28;20210;-50
2023/08/14 05:14:20;;;;;;;3.27;2.93;;;;;;;;;;5026795;28;21281;-50
2023/08/14 05:16:47;;;;;;;4.37;3.20;;;;;;;;;;5025211;28;20187;-50
2023/08/14 05:19:17;;;;;;;4.50;3.33;;;;;;;;;;5026274;28;20676;-50
2023/08/14 05:21:45;;;;;;;6.13;3.50;;;;;;;;;;5025804;28;20289;-51
2023/08/14 05:24:11;;;;;;;7.60;3.43;;;;;;;;;;5024449;28;20209;-51
2023/08/14 05:26:37;;;;;;;6.33;3.90;;;;;;;;;;5027324;28;20185;-51
2023/08/14 05:29:04;;;;;;;5.03;2.90;;;;;;;;;;5024159;28;20189;-50
2023/08/14 05:31:30;;;;;;;5.40;4.20;;;;;;;;;;5026778;28;20596;-51
2023/08/14 05:33:56;;;;;;;5.70;3.83;;;;;;;;;;5024775;28;20196;-50
2023/08/14 05:36:23;;;;;;;3.67;3.37;;;;;;;;;;5024716;28;20642;-51
2023/08/14 05:38:49;;;;;;;6.00;3.40;;;;;;;;;;5021006;28;20271;-49
2023/08/14 05:41:16;;;;;;;6.03;3.67;;;;;;;;;;5019633;28;20182;-49
2023/08/14 05:43:43;;;;;;;4.80;4.20;;;;;;;;;;5020819;28;20331;-49
2023/08/14 05:46:09;;;;;;;6.07;3.87;;;;;;;;;;5000909;28;20281;-50
2023/08/14 05:48:35;;;;;;;4.87;3.47;;;;;;;;;;5016460;28;20179;-50
2023/08/14 05:51:02;;;;;;;5.10;3.90;;;;;;;;;;5019035;28;20615;-49
2023/08/14 05:53:28;;;;;;;9.03;4.27;;;;;;;;;;5023018;28;20193;-49
2023/08/14 05:55:54;;;;;;;6.23;5.50;;;;;;;;;;5026720;28;20193;-49
2023/08/14 05:58:20;;;;;;;6.60;4.40;;;;;;;;;;5021170;28;20185;-49
2023/08/14 06:00:46;;;;;;;7.30;4.60;;;;;;;;;;5017202;28;20201;-50
2023/08/14 06:03:13;;;;;;;8.47;4.00;;;;;;;;;;5026018;28;20214;-50
2023/08/14 06:05:39;;;;;;;5.47;4.13;;;;;;;;;;5035586;28;20205;-50
2023/08/14 06:08:06;;;;;;;7.97;4.33;;;;;;;;;;5019464;28;20182;-50
2023/08/14 06:10:32;;;;;;;6.67;3.67;;;;;;;;;;5021322;28;20178;-50
2023/08/14 06:12:59;;;;;;;5.20;4.17;;;;;;;;;;5019149;28;20190;-49
2023/08/14 06:15:25;;;;;;;6.60;4.03;;;;;;;;;;4997820;28;20235;-50
2023/08/14 06:17:52;;;;;;;6.13;4.47;;;;;;;;;;5020431;28;20213;-49
2023/08/14 06:20:18;;;;;;;7.57;4.37;;;;;;;;;;5024348;28;20229;-50
2023/08/14 06:22:46;;;;;;;6.77;4.17;;;;;;;;;;5022841;28;20288;-49
2023/08/14 06:25:12;;;;;;;9.07;4.70;;;;;;;;;;5025134;28;20672;-49
2023/08/14 06:27:39;;;;;;;5.30;4.03;;;;;;;;;;5023385;28;20280;-50
2023/08/14 06:30:05;;;;;;;8.00;3.33;;;;;;;;;;5025677;28;20292;-50
2023/08/14 06:32:32;;;;;;;5.83;3.83;;;;;;;;;;5027040;28;20186;-50
2023/08/14 06:34:58;;;;;;;4.93;3.97;;;;;;;;;;5022300;28;20193;-50
2023/08/14 06:37:24;;;;;;;4.50;3.63;;;;;;;;;;5022559;28;20641;-50
2023/08/14 06:39:50;;;;;;;6.40;3.53;;;;;;;;;;5019362;28;20558;-49
2023/08/14 06:42:17;;;;;;;8.13;4.10;;;;;;;;;;5027230;28;20221;-50
2023/08/14 06:44:43;;;;;;;8.03;4.00;;;;;;;;;;5029486;28;20268;-49
2023/08/14 06:47:09;;;;;;;5.07;3.83;;;;;;;;;;5030858;28;20307;-49
2023/08/14 06:49:35;;;;;;;5.20;3.20;;;;;;;;;;5025698;28;20190;-49
2023/08/14 06:52:02;;;;;;;7.73;4.33;;;;;;;;;;5028967;28;20541;-49
2023/08/14 06:54:28;;;;;;;9.17;3.37;;;;;;;;;;5028384;28;20748;-49
2023/08/14 06:56:54;;;;;;;5.00;3.53;;;;;;;;;;5027763;28;20185;-49
2023/08/14 06:59:20;;;;;;;9.10;3.77;;;;;;;;;;5028860;28;20197;-52
2023/08/14 07:01:46;;;;;;;7.53;3.83;;;;;;;;;;5025462;28;20562;-52
2023/08/14 07:04:12;;;;;;;4.03;3.57;;;;;;;;;;5030479;28;20677;-52
2023/08/14 07:06:38;;;;;;;4.90;3.63;;;;;;;;;;5023808;28;20189;-52
2023/08/14 07:09:04;;;;;;;5.80;3.53;;;;;;;;;;5025392;28;20650;-51
2023/08/14 07:11:38;;;;;;;5.93;3.97;;;;;;;;;;5031019;28;20197;-51
2023/08/14 07:14:04;;;;;;;7.57;4.00;;;;;;;;;;5031525;28;20707;-51
2023/08/14 07:16:30;;;;;;;4.47;3.43;;;;;;;;;;5008539;28;20205;-51
2023/08/14 07:18:57;;;;;;;5.77;3.30;;;;;;;;;;5008966;28;20204;-51
2023/08/14 07:21:23;;;;;;;5.43;3.40;;;;;;;;;;5029609;28;20190;-51
2023/08/14 07:23:49;;;;;;;6.60;3.57;;;;;;;;;;5030072;28;20279;-51
2023/08/14 07:26:18;;;;;;;4.90;3.73;;;;;;;;;;5029216;28;20231;-51
2023/08/14 07:28:44;;;;;;;5.27;3.67;;;;;;;;;;5029063;28;20296;-51
2023/08/14 07:31:11;;;;;;;6.87;3.90;;;;;;;;;;5028680;28;20545;-51
2023/08/14 07:33:37;;;;;;;4.37;3.60;;;;;;;;;;5019985;28;20289;-52
2023/08/14 07:36:04;;;;;;;4.60;3.83;;;;;;;;;;5030747;28;20189;-52
2023/08/14 07:38:30;;;;;;;8.87;3.70;;;;;;;;;;5028246;28;20240;-52
2023/08/14 07:40:56;;;;;;;3.80;3.33;;;;;;;;;;5032099;28;20186;-52
2023/08/14 07:43:23;;;;;;;4.07;3.60;;;;;;;;;;5031996;28;20657;-52
2023/08/14 07:45:49;;;;;;;5.67;3.63;;;;;;;;;;5027845;28;20545;-51
2023/08/14 07:48:15;;;;;;;8.20;3.83;;;;;;;;;;5025637;28;20627;-52
2023/08/14 07:50:42;;;;;;;6.57;3.43;;;;;;;;;;5010303;28;20288;-52
2023/08/14 07:53:09;;;;;;;4.63;3.50;;;;;;;;;;5003924;28;20685;-52
2023/08/14 07:55:36;;;;;;;4.13;3.73;;;;;;;;;;5028341;28;20210;-52
2023/08/14 07:58:02;;;;;;;5.37;4.07;;;;;;;;;;5026807;28;20212;-52
2023/08/14 08:00:28;;;;;;;5.17;3.40;;;;;;;;;;5028905;28;20267;-52
2023/08/14 08:02:54;;;;;;;6.07;3.90;;;;;;;;;;5024805;28;20309;-52
2023/08/14 08:05:21;;;;;;;4.60;3.70;;;;;;;;;;5028864;28;20522;-52
2023/08/14 08:07:47;;;;;;;6.93;4.03;;;;;;;;;;5007882;28;20554;-52
2023/08/14 08:10:13;;;;;;;6.07;4.17;;;;;;;;;;5028331;28;20185;-52
2023/08/14 08:12:39;;;;;;;6.63;3.60;;;;;;;;;;5029824;28;20194;-52
2023/08/14 08:15:06;;;;;;;5.87;3.53;;;;;;;;;;5027776;28;20206;-52
2023/08/14 08:17:32;;;;;;;7.10;3.93;;;;;;;;;;5026022;28;20189;-52
2023/08/14 08:19:58;;;;;;;5.17;3.80;;;;;;;;;;5026055;28;20187;-52
2023/08/14 08:22:24;;;;;;;5.93;3.90;;;;;;;;;;5028762;28;20733;-52
2023/08/14 08:24:50;;;;;;;4.20;3.47;;;;;;;;;;5027938;28;20949;-52
2023/08/14 08:27:16;;;;;;;4.23;3.47;;;;;;;;;;5021588;28;20195;-52
2023/08/14 08:29:42;;;;;;;6.83;3.80;;;;;;;;;;5025105;28;20202;-52
2023/08/14 08:32:08;;;;;;;4.93;3.53;;;;;;;;;;5022924;28;20211;-52
2023/08/14 08:34:34;;;;;;;5.93;3.73;;;;;;;;;;5025129;28;20628;-52
2023/08/14 08:37:00;;;;;;;5.53;3.57;;;;;;;;;;5019239;28;20195;-52
2023/08/14 08:39:26;;;;;;;6.63;3.60;;;;;;;;;;5026117;28;20247;-52
2023/08/14 08:41:53;;;;;;;4.30;3.50;;;;;;;;;;5023565;28;20217;-52
2023/08/14 08:44:25;;;;;;;5.20;3.67;;;;;;;;;;5027243;28;20267;-52
2023/08/14 08:46:52;;;;;;;5.27;2.97;;;;;;;;;;5023702;28;20191;-52
2023/08/14 08:49:19;;;;;;;7.50;2.93;;;;;;;;;;5028499;28;20179;-52
2023/08/14 08:51:45;;;;;;;4.27;2.93;;;;;;;;;;5029115;28;20199;-52
2023/08/14 08:54:15;;;;;;;5.97;3.10;;;;;;;;;;5026263;28;20192;-53
2023/08/14 08:56:42;;;;;;;4.37;2.83;;;;;;;;;;5025563;28;20246;-52
2023/08/14 08:59:09;;;;;;;5.95;3.40;;;;;;;;;;5027190;28;20190;-52
2023/08/14 09:01:35;;;;;;;7.07;3.38;;;;;;;;;;5027097;28;20281;-52
2023/08/14 09:04:04;;;;;;;7.30;2.83;;;;;;;;;;5025730;28;20701;-52
2023/08/14 09:06:30;;;;;;;5.75;3.50;;;;;;;;;;5027433;28;20186;-53
2023/08/14 09:08:56;;;;;;;5.10;2.70;;;;;;;;;;5025465;28;20217;-53
2023/08/14 09:11:23;;;;;;;5.15;3.03;;;;;;;;;;5028378;28;20189;-53
2023/08/14 09:13:49;;;;;;;4.10;2.78;;;;;;;;;;5025265;28;20200;-60
2023/08/14 09:16:16;;;;;;;3.30;3.00;;;;;;;;;;5025117;28;20196;-53
2023/08/14 09:18:46;;;;;;;5.80;3.08;;;;;;;;;;5024832;28;20208;-53
2023/08/14 09:21:13;;;;;;;3.75;3.15;;;;;;;;;;5009440;28;20194;-53
2023/08/14 09:23:40;;;;;;;3.63;2.47;;;;;;;;;;5026302;28;20217;-54
2023/08/14 09:26:09;;;;;;;4.45;3.03;;;;;;;;;;5021478;28;20190;-53
2023/08/14 09:28:39;;;;;;;5.20;2.60;;;;;;;;;;5021190;28;20190;-53
2023/08/14 09:31:07;;;;;;;6.35;3.17;;;;;;;;;;5028319;28;20218;-55
2023/08/14 09:33:33;;;;;;;5.38;2.80;;;;;;;;;;5024772;28;20239;-54
2023/08/14 09:35:59;;;;;;;7.70;2.95;;;;;;;;;;5027002;28;20221;-54
2023/08/14 09:38:25;;;;;;;4.28;2.50;;;;;;;;;;5020447;28;20229;-55
2023/08/14 09:40:57;;;;;;;4.15;2.47;;;;;;;;;;5023094;28;20245;-56
2023/08/14 09:43:24;;;;;;;3.47;2.88;;;;;;;;;;5022003;28;20701;-55
2023/08/14 09:45:50;;;;;;;6.07;2.55;;;;;;;;;;5026657;28;20190;-55
2023/08/14 09:48:16;;;;;;;4.30;2.67;;;;;;;;;;5023991;28;20573;-55
2023/08/14 09:50:49;;;;;;;5.50;3.13;;;;;;;;;;5023381;28;20211;-54
2023/08/14 09:53:15;;;;;;;4.60;2.87;;;;;;;;;;5026117;28;20194;-55
2023/08/14 09:55:42;;;;;;;3.73;2.87;;;;;;;;;;5021910;28;20564;-55
2023/08/14 09:58:08;;;;;;;6.30;3.33;;;;;;;;;;5020190;28;20197;-55
2023/08/14 10:00:34;;;;;;;5.43;3.17;;;;;;;;;;5027662;28;20201;-55
2023/08/14 10:03:01;;;;;;;3.57;2.57;;;;;;;;;;5025507;28;20227;-55
2023/08/14 10:05:27;;;;;;;5.37;2.37;;;;;;;;;;5025462;28;20571;-55
2023/08/14 10:07:55;;;;;;;6.37;3.00;;;;;;;;;;5023869;28;20211;-55
2023/08/14 10:10:24;;;;;;;5.07;2.80;;;;;;;;;;5022604;28;20188;-55
2023/08/14 10:12:52;;;;;;;4.60;3.10;;;;;;;;;;5022849;28;20197;-53
2023/08/14 10:15:25;;;;;;;4.10;2.80;;;;;;;;;;5019453;28;20623;-54
2023/08/14 10:17:56;;;;;;;3.53;2.60;;;;;;;;;;5023963;28;20222;-54
2023/08/14 10:20:22;;;;;;;6.23;2.70;;;;;;;;;;5016544;28;20185;-55
2023/08/14 10:22:50;;;;;;;4.57;2.90;;;;;;;;;;5023715;28;20694;-54
2023/08/14 10:25:16;;;;;;;4.73;3.17;;;;;;;;;;5021346;28;20181;-54
2023/08/14 10:27:43;;;;;;;3.37;2.70;;;;;;;;;;5022312;28;20189;-53
2023/08/14 10:30:10;;;;;;;3.93;2.53;;;;;;;;;;5026140;28;20651;-52
2023/08/14 10:32:37;;;;;;;5.13;3.03;;;;;;;;;;5022943;28;20192;-52
2023/08/14 10:35:03;;;;;;;4.27;2.70;;;;;;;;;;5024931;28;20191;-52
2023/08/14 10:37:40;;;;;;;4.77;2.93;;;;;;;;;;5026542;28;20668;-52
2023/08/14 10:40:19;;;;;;;4.40;3.13;;;;;;;;;;5025688;28;20207;-52
2023/08/14 10:42:51;;;;;;;4.17;3.50;;;;;;;;;;5020051;28;20277;-53
2023/08/14 10:45:17;;;;;;;3.80;2.93;;;;;;;;;;5025358;28;20191;-53
2023/08/14 10:47:44;;;;;;;4.90;2.47;;;;;;;;;;5026477;28;20200;-53
2023/08/14 10:50:19;;;;;;;9.13;3.33;;;;;;;;;;5024455;28;20193;-53
2023/08/14 10:52:46;;;;;;;4.77;3.50;;;;;;;;;;5023603;28;20246;-53
2023/08/14 10:55:18;;;;;;;7.20;3.10;;;;;;;;;;5025149;28;20193;-53
2023/08/14 10:57:45;;;;;;;4.47;3.00;;;;;;;;;;5023748;28;20693;-53
2023/08/14 11:00:24;;;;;;;4.93;3.00;;;;;;;;;;5020325;28;20212;-51
2023/08/14 11:03:12;;;;;;;4.07;2.60;;;;;;;;;;5018195;28;20699;-51
2023/08/14 11:05:39;;;;;;;9.47;2.70;;;;;;;;;;5024073;28;20551;-53
2023/08/14 11:08:06;;;;;;;5.63;3.17;;;;;;;;;;5025752;28;20198;-51
2023/08/14 11:10:34;;;;;;;5.87;2.80;;;;;;;;;;5024018;28;20193;-51
2023/08/14 11:13:01;;;;;;;3.07;2.70;;;;;;;;;;5026205;28;20196;-52
2023/08/14 11:15:30;;;;;;;5.17;2.80;;;;;;;;;;5025902;28;20288;-51
2023/08/14 11:17:56;;;;;;;2.90;2.53;;;;;;;;;;5022429;28;20220;-52
2023/08/14 11:20:22;;;;;;;6.60;3.43;;;;;;;;;;5023237;28;20188;-52
2023/08/14 11:22:48;;;;;;;4.50;2.70;;;;;;;;;;5020466;28;20220;-52
2023/08/14 11:25:15;;;;;;;4.27;2.90;;;;;;;;;;5021174;28;20217;-52
2023/08/14 11:27:41;;;;;;;3.30;2.87;;;;;;;;;;5016843;28;20195;-53
2023/08/14 11:30:10;;;;;;;2.80;2.27;;;;;;;;;;5024868;28;20192;-52
2023/08/14 11:32:36;;;;;;;6.00;2.80;;;;;;;;;;5024153;28;20545;-52
2023/08/14 11:35:03;;;;;;;3.47;2.90;;;;;;;;;;5028695;28;20392;-52
2023/08/14 11:37:29;;;;;;;4.40;2.70;;;;;;;;;;5026616;28;20262;-53
2023/08/14 11:39:55;;;;;;;5.00;3.17;;;;;;;;;;5027397;28;20342;-53
2023/08/14 11:42:22;;;;;;;3.93;2.90;;;;;;;;;;5024138;28;20273;-52
2023/08/14 11:44:48;;;;;;;7.43;3.60;;;;;;;;;;5024705;28;20188;-51
2023/08/14 11:47:14;;;;;;;4.80;2.93;;;;;;;;;;5005747;28;20194;-52
2023/08/14 11:49:40;;;;;;;6.17;3.57;;;;;;;;;;5029630;28;20282;-52
2023/08/14 11:52:06;;;;;;;4.07;3.00;;;;;;;;;;5024433;28;20617;-52
2023/08/14 11:54:35;;;;;;;5.07;3.63;;;;;;;;;;5011438;28;20188;-52
2023/08/14 11:57:02;;;;;;;4.03;2.93;;;;;;;;;;5022587;28;20254;-52
2023/08/14 11:59:28;;;;;;;4.80;2.83;;;;;;;;;;5022622;28;20195;-52
2023/08/14 12:01:56;;;;;;;3.73;3.07;;;;;;;;;;5026893;28;20267;-52
2023/08/14 12:04:22;;;;;;;4.60;3.60;;;;;;;;;;5023765;28;20210;-52
2023/08/14 12:06:48;;;;;;;3.83;2.93;;;;;;;;;;5025799;28;20186;-52
2023/08/14 12:09:15;;;;;;;4.03;2.97;;;;;;;;;;5024797;28;20200;-52
2023/08/14 12:11:41;;;;;;;6.27;2.93;;;;;;;;;;5008830;28;20677;-52
2023/08/14 12:14:07;;;;;;;5.93;3.00;;;;;;;;;;5022603;28;20749;-51
2023/08/14 12:16:37;;;;;;;4.03;3.03;;;;;;;;;;5026922;28;20190;-53
2023/08/14 12:19:06;;;;;;;5.97;3.43;;;;;;;;;;5028372;28;20196;-52
2023/08/14 12:21:32;;;;;;;3.70;2.60;;;;;;;;;;5018851;28;20190;-52
2023/08/14 12:23:58;;;;;;;6.72;2.90;;;;;;;;;;5020427;28;20256;-51
2023/08/14 12:26:24;;;;;;;5.30;2.93;;;;;;;;;;5024879;28;20644;-51
2023/08/14 12:28:50;;;;;;;5.28;3.25;;;;;;;;;;5023813;28;20471;-52
2023/08/14 12:31:17;;;;;;;6.27;3.50;;;;;;;;;;5026367;28;20217;-53
2023/08/14 12:33:44;;;;;;;7.87;3.00;;;;;;;;;;5028555;28;20197;-52
2023/08/14 12:36:10;;;;;;;5.55;3.30;;;;;;;;;;5022924;28;20186;-53
2023/08/14 12:38:39;;;;;;;5.90;3.80;;;;;;;;;;5024169;28;20229;-53
2023/08/14 12:41:06;;;;;;;4.50;2.73;;;;;;;;;;5024116;28;20642;-53
2023/08/14 12:43:32;;;;;;;4.25;3.03;;;;;;;;;;5025548;28;20666;-52
2023/08/14 12:45:59;;;;;;;5.80;3.30;;;;;;;;;;5024348;28;20182;-53
2023/08/14 12:48:25;;;;;;;4.67;3.03;;;;;;;;;;5018187;28;20178;-52
2023/08/14 12:50:51;;;;;;;7.33;4.20;;;;;;;;;;5026331;28;20194;-52
2023/08/14 12:53:17;;;;;;;6.47;3.30;;;;;;;;;;5021557;28;20193;-52
2023/08/14 12:55:45;;;;;;;13.03;4.33;;;;;;;;;;5025117;28;20700;-51
2023/08/14 12:58:11;;;;;;;6.47;3.33;;;;;;;;;;5022964;28;20280;-53
2023/08/14 13:00:38;;;;;;;4.80;3.60;;;;;;;;;;5020270;28;20191;-53
2023/08/14 13:03:05;;;;;;;4.93;3.10;;;;;;;;;;5026365;28;20594;-52
2023/08/14 13:05:31;;;;;;;4.00;2.90;;;;;;;;;;5026492;28;20707;-52
2023/08/14 13:07:57;;;;;;;4.07;3.07;;;;;;;;;;5025543;28;20547;-52
2023/08/14 13:10:23;;;;;;;6.03;3.57;;;;;;;;;;5025600;28;20289;-54
2023/08/14 13:12:50;;;;;;;5.57;3.20;;;;;;;;;;5026634;28;20190;-53
2023/08/14 13:15:16;;;;;;;7.60;3.47;;;;;;;;;;5026259;28;20310;-53
2023/08/14 13:17:43;;;;;;;4.83;3.33;;;;;;;;;;5027334;28;20610;-51
2023/08/14 13:20:10;;;;;;;6.83;3.33;;;;;;;;;;5024775;28;20189;-51
2023/08/14 13:22:36;;;;;;;5.68;3.40;;;;;;;;;;5011283;28;20320;-52
2023/08/14 13:25:03;;;;;;;5.25;2.97;;;;;;;;;;5024496;28;20197;-51
2023/08/14 13:27:29;;;;;;;5.05;3.50;;;;;;;;;;5023460;28;20971;-52
2023/08/14 13:29:55;;;;;;;6.78;3.17;;;;;;;;;;5001613;28;20186;-55
2023/08/14 13:32:21;;;;;;;5.03;3.42;;;;;;;;;;5025915;28;20581;-55
2023/08/14 13:34:47;;;;;;;4.15;3.13;;;;;;;;;;5027775;28;21008;-55
2023/08/14 13:37:13;;;;;;;3.75;3.00;;;;;;;;;;5027011;28;20192;-55
2023/08/14 13:39:39;;;;;;;5.47;3.17;;;;;;;;;;5025545;28;20222;-55
2023/08/14 13:42:06;;;;;;;4.57;3.58;;;;;;;;;;5023134;28;20197;-55
2023/08/14 13:44:32;;;;;;;5.82;3.50;;;;;;;;;;5027786;28;20210;-55
2023/08/14 13:46:58;;;;;;;3.90;2.97;;;;;;;;;;5028503;28;20185;-55
2023/08/14 13:49:24;;;;;;;6.07;3.60;;;;;;;;;;5025695;28;20174;-54
2023/08/14 13:51:50;;;;;;;5.70;3.45;;;;;;;;;;5028368;28;20558;-59
2023/08/14 13:54:16;;;;;;;5.28;3.47;;;;;;;;;;5041538;28;20197;-55
2023/08/14 13:56:43;;;;;;;5.95;3.03;;;;;;;;;;5019945;28;20264;-55
2023/08/14 13:59:09;;;;;;;4.05;3.35;;;;;;;;;;5028256;28;20186;-56
2023/08/14 14:01:35;;;;;;;4.45;3.58;;;;;;;;;;5030065;28;20221;-56
2023/08/14 14:04:01;;;;;;;4.65;3.25;;;;;;;;;;5025473;28;20220;-56
2023/08/14 14:06:27;;;;;;;5.05;3.45;;;;;;;;;;5027885;28;20218;-56
2023/08/14 14:08:53;;;;;;;5.28;3.30;;;;;;;;;;5024363;28;20676;-56
2023/08/14 14:11:19;;;;;;;5.25;3.42;;;;;;;;;;5007547;28;20182;-56
2023/08/14 14:13:46;;;;;;;4.13;3.60;;;;;;;;;;5025452;28;20545;-56
2023/08/14 14:16:12;;;;;;;5.45;3.40;;;;;;;;;;5022187;28;20185;-56
2023/08/14 14:18:38;;;;;;;6.90;3.95;;;;;;;;;;5023401;28;20197;-56
2023/08/14 14:21:04;;;;;;;7.18;3.92;;;;;;;;;;5021739;28;20205;-56
2023/08/14 14:23:30;;;;;;;4.68;3.72;;;;;;;;;;5017881;28;20214;-56
2023/08/14 14:25:56;;;;;;;4.82;3.10;;;;;;;;;;5021035;28;20193;-56
2023/08/14 14:28:22;;;;;;;6.82;3.58;;;;;;;;;;5023976;28;20182;-56
2023/08/14 14:30:49;;;;;;;4.85;3.53;;;;;;;;;;5022523;28;20260;-55
2023/08/14 14:33:15;;;;;;;4.22;3.42;;;;;;;;;;5024798;28;20190;-56
2023/08/14 14:35:41;;;;;;;4.43;3.63;;;;;;;;;;5024868;28;20575;-57
2023/08/14 14:38:09;;;;;;;5.57;4.53;;;;;;;;;;5017384;28;20234;-57
2023/08/14 14:40:35;;;;;;;4.72;3.60;;;;;;;;;;5023030;28;20213;-56